createdAt,value
2016-12-11T00:00:42.504Z,1013.42
2016-12-11T00:01:51.225Z,1013.43
2016-12-11T00:03:00.234Z,1013.43
2016-12-11T00:04:10.199Z,1013.42
2016-12-11T00:05:18.895Z,1013.38
2016-12-11T00:06:28.520Z,1013.38
2016-12-11T00:07:37.816Z,1013.31
2016-12-11T00:08:47.139Z,1013.29
2016-12-11T00:09:56.127Z,1013.27
2016-12-11T00:11:05.455Z,1013.27
2016-12-11T00:12:14.147Z,1013.23
2016-12-11T00:13:22.913Z,1013.16
2016-12-11T00:14:31.911Z,1013.13
2016-12-11T00:15:40.916Z,1013.12
2016-12-11T00:16:50.274Z,1013.12
2016-12-11T00:17:59.590Z,1013.07
2016-12-11T00:19:08.913Z,1013
2016-12-11T00:20:17.621Z,1012.95
2016-12-11T00:21:27.229Z,1012.94
2016-12-11T00:22:37.164Z,1012.92
2016-12-11T00:23:45.865Z,1012.95
2016-12-11T00:24:54.879Z,1012.99
2016-12-11T00:26:03.599Z,1012.95
2016-12-11T00:27:13.219Z,1012.92
2016-12-11T00:28:21.907Z,1012.88
2016-12-11T00:29:30.912Z,1012.87
2016-12-11T00:30:39.600Z,1012.86
2016-12-11T00:31:48.900Z,1012.83
2016-12-11T00:32:58.203Z,1012.79
2016-12-11T00:34:07.207Z,1012.75
2016-12-11T00:35:15.899Z,1012.73
2016-12-11T00:36:24.901Z,1012.71
2016-12-11T00:37:34.217Z,1012.67
2016-12-11T00:38:43.530Z,1012.69
2016-12-11T00:39:52.236Z,1012.62
2016-12-11T00:41:01.230Z,1012.6
2016-12-11T00:42:10.856Z,1012.54
2016-12-11T00:43:19.851Z,1012.55
2016-12-11T00:44:29.159Z,1012.5
2016-12-11T00:45:38.166Z,1012.53
2016-12-11T00:46:47.214Z,1012.51
2016-12-11T00:47:56.004Z,1012.49
2016-12-11T00:49:05.021Z,1012.49
2016-12-11T00:50:14.088Z,1012.45
2016-12-11T00:51:22.804Z,1012.43
2016-12-11T00:52:31.898Z,1012.41
2016-12-11T00:53:41.221Z,1012.4
2016-12-11T00:54:50.267Z,1012.37
2016-12-11T00:55:59.266Z,1012.32
2016-12-11T00:57:07.965Z,1012.31
2016-12-11T00:58:16.994Z,1012.23
2016-12-11T00:59:25.985Z,1012.26
2016-12-11T01:00:34.670Z,1012.25
2016-12-11T01:01:43.662Z,1012.14
2016-12-11T01:02:52.992Z,1012.17
2016-12-11T01:04:02.594Z,1012.25
2016-12-11T01:05:11.590Z,1012.14
2016-12-11T01:06:20.895Z,1012.14
2016-12-11T01:07:29.908Z,1012.15
2016-12-11T01:08:38.944Z,1012.19
2016-12-11T01:09:47.931Z,1012.19
2016-12-11T01:10:56.937Z,1012.15
2016-12-11T01:12:05.658Z,1012.17
2016-12-11T01:13:17.691Z,1012.13
2016-12-11T01:14:27.025Z,1012.1
2016-12-11T01:15:36.033Z,1012.14
2016-12-11T01:16:45.033Z,1012.13
2016-12-11T01:17:54.030Z,1012.06
2016-12-11T01:19:03.024Z,1011.98
2016-12-11T01:20:11.740Z,1011.97
2016-12-11T01:21:21.062Z,1011.93
2016-12-11T01:22:30.071Z,1011.97
2016-12-11T01:23:39.127Z,1012.1
2016-12-11T01:24:48.733Z,1012.16
2016-12-11T01:25:58.081Z,1012.17
2016-12-11T01:27:07.119Z,1012.18
2016-12-11T01:28:15.806Z,1012.13
2016-12-11T01:29:24.523Z,1012.07
2016-12-11T01:30:33.534Z,1012.03
2016-12-11T01:31:42.569Z,1012
2016-12-11T01:32:51.613Z,1012.02
2016-12-11T01:34:00.918Z,1012.01
2016-12-11T01:35:09.614Z,1011.97
2016-12-11T01:36:18.309Z,1012.05
2016-12-11T01:37:26.995Z,1011.99
2016-12-11T01:38:35.681Z,1011.96
2016-12-11T01:39:44.709Z,1011.9
2016-12-11T01:40:53.720Z,1011.83
2016-12-11T01:42:03.668Z,1011.92
2016-12-11T01:43:12.691Z,1011.92
2016-12-11T01:44:21.701Z,1011.94
2016-12-11T01:45:31.028Z,1011.91
2016-12-11T01:46:40.344Z,1011.85
2016-12-11T01:47:50.000Z,1011.84
2016-12-11T01:48:59.300Z,1011.86
2016-12-11T01:50:08.609Z,1011.79
2016-12-11T01:51:17.625Z,1011.76
2016-12-11T01:52:26.316Z,1011.73
2016-12-11T01:53:35.010Z,1011.67
2016-12-11T01:54:44.005Z,1011.67
2016-12-11T01:55:53.316Z,1011.66
2016-12-11T01:57:02.318Z,1011.59
2016-12-11T01:58:12.246Z,1011.6
2016-12-11T01:59:21.262Z,1011.6
2016-12-11T02:00:30.274Z,1011.57
2016-12-11T02:01:39.279Z,1011.58
2016-12-11T02:02:47.989Z,1011.61
2016-12-11T02:03:57.288Z,1011.58
2016-12-11T02:05:06.337Z,1011.59
2016-12-11T02:06:15.063Z,1011.58
2016-12-11T02:07:24.065Z,1011.5
2016-12-11T02:08:33.061Z,1011.53
2016-12-11T02:09:42.442Z,1011.47
2016-12-11T02:10:51.455Z,1011.55
2016-12-11T02:12:01.070Z,1011.55
2016-12-11T02:13:10.444Z,1011.54
2016-12-11T02:14:19.756Z,1011.54
2016-12-11T02:15:29.110Z,1011.5
2016-12-11T02:16:38.130Z,1011.48
2016-12-11T02:17:46.835Z,1011.49
2016-12-11T02:18:55.535Z,1011.4
2016-12-11T02:20:04.537Z,1011.34
2016-12-11T02:21:13.612Z,1011.39
2016-12-11T02:22:22.332Z,1011.37
2016-12-11T02:23:31.342Z,1011.4
2016-12-11T02:24:40.029Z,1011.35
2016-12-11T02:25:49.325Z,1011.3
2016-12-11T02:26:58.351Z,1011.25
2016-12-11T02:28:07.048Z,1011.21
2016-12-11T02:29:16.061Z,1011.21
2016-12-11T02:30:26.281Z,1011.17
2016-12-11T02:31:35.946Z,1011.05
2016-12-11T02:32:44.976Z,1011.1
2016-12-11T02:33:53.983Z,1011.06
2016-12-11T02:35:03.599Z,1011.05
2016-12-11T02:36:12.601Z,1011.02
2016-12-11T02:37:21.599Z,1011
2016-12-11T02:38:30.303Z,1011.03
2016-12-11T02:39:39.637Z,1010.97
2016-12-11T02:40:48.709Z,1010.95
2016-12-11T02:41:57.714Z,1010.87
2016-12-11T02:43:06.715Z,1010.92
2016-12-11T02:44:15.749Z,1011.02
2016-12-11T02:45:25.374Z,1010.92
2016-12-11T02:46:34.095Z,1010.99
2016-12-11T02:47:43.402Z,1010.9
2016-12-11T02:48:52.127Z,1010.94
2016-12-11T02:50:01.739Z,1010.91
2016-12-11T02:51:10.728Z,1010.95
2016-12-11T02:52:19.910Z,1010.96
2016-12-11T02:53:29.236Z,1010.82
2016-12-11T02:54:37.991Z,1010.87
2016-12-11T02:55:47.321Z,1010.92
2016-12-11T02:56:56.684Z,1010.97
2016-12-11T02:58:05.782Z,1010.87
2016-12-11T02:59:14.472Z,1010.95
2016-12-11T03:00:23.861Z,1010.95
2016-12-11T03:01:33.182Z,1010.9
2016-12-11T03:02:41.924Z,1011.01
2016-12-11T03:03:51.258Z,1010.98
2016-12-11T03:05:00.255Z,1011.05
2016-12-11T03:06:09.257Z,1011.11
2016-12-11T03:07:18.324Z,1011.05
2016-12-11T03:08:27.989Z,1011.09
2016-12-11T03:09:36.732Z,1011.09
2016-12-11T03:10:45.754Z,1011.08
2016-12-11T03:11:54.848Z,1011
2016-12-11T03:13:03.606Z,1011.09
2016-12-11T03:14:12.601Z,1011.05
2016-12-11T03:15:21.634Z,1011.08
2016-12-11T03:16:30.334Z,1011.02
2016-12-11T03:17:39.656Z,1011.01
2016-12-11T03:18:49.021Z,1011.01
2016-12-11T03:19:58.454Z,1011.08
2016-12-11T03:21:08.089Z,1011.13
2016-12-11T03:22:16.778Z,1011.09
2016-12-11T03:23:25.833Z,1011.05
2016-12-11T03:24:34.560Z,1011.09
2016-12-11T03:25:44.259Z,1011.1
2016-12-11T03:26:53.254Z,1011.08
2016-12-11T03:28:02.011Z,1011.09
2016-12-11T03:29:11.025Z,1011.13
2016-12-11T03:30:20.134Z,1011.13
2016-12-11T03:31:29.458Z,1011.18
2016-12-11T03:32:38.510Z,1011.18
2016-12-11T03:33:47.856Z,1011.23
2016-12-11T03:34:56.958Z,1011.17
2016-12-11T03:36:05.662Z,1011.3
2016-12-11T03:37:15.011Z,1011.33
2016-12-11T03:38:24.665Z,1011.3
2016-12-11T03:39:34.651Z,1011.2
2016-12-11T03:40:43.361Z,1011.27
2016-12-11T03:41:52.394Z,1011.27
2016-12-11T03:43:01.402Z,1011.12
2016-12-11T03:44:10.736Z,1011.31
2016-12-11T03:45:19.788Z,1011.4
2016-12-11T03:46:28.859Z,1011.32
2016-12-11T03:47:38.190Z,1011.42
2016-12-11T03:48:47.188Z,1011.35
2016-12-11T03:49:56.191Z,1011.33
2016-12-11T03:51:05.489Z,1011.4
2016-12-11T03:52:14.803Z,1011.35
2016-12-11T03:53:24.146Z,1011.47
2016-12-11T03:54:32.989Z,1011.45
2016-12-11T03:55:41.987Z,1011.49
2016-12-11T03:56:51.284Z,1011.48
2016-12-11T03:57:59.982Z,1011.55
2016-12-11T03:59:09.008Z,1011.45
2016-12-11T04:00:17.706Z,1011.57
2016-12-11T04:01:27.030Z,1011.66
2016-12-11T04:02:36.954Z,1011.51
2016-12-11T04:03:45.686Z,1011.51
2016-12-11T04:04:54.414Z,1011.56
2016-12-11T04:06:04.026Z,1011.54
2016-12-11T04:07:12.733Z,1011.44
2016-12-11T04:08:22.057Z,1011.6
2016-12-11T04:09:31.081Z,1011.65
2016-12-11T04:10:40.101Z,1011.6
2016-12-11T04:11:49.096Z,1011.64
2016-12-11T04:12:58.416Z,1011.67
2016-12-11T04:14:07.443Z,1011.74
2016-12-11T04:15:16.487Z,1011.74
2016-12-11T04:16:25.521Z,1011.87
2016-12-11T04:17:35.135Z,1011.78
2016-12-11T04:18:44.247Z,1012.01
2016-12-11T04:19:53.362Z,1012.1
2016-12-11T04:21:02.367Z,1012.07
2016-12-11T04:22:11.391Z,1012.17
2016-12-11T04:23:20.397Z,1012.11
2016-12-11T04:24:29.148Z,1012.09
2016-12-11T04:25:38.261Z,1012.25
2016-12-11T04:26:46.985Z,1012.23
2016-12-11T04:27:56.321Z,1012.36
2016-12-11T04:29:05.650Z,1012.4
2016-12-11T04:30:14.691Z,1012.33
2016-12-11T04:31:24.309Z,1012.39
2016-12-11T04:32:33.636Z,1012.47
2016-12-11T04:33:42.949Z,1012.41
2016-12-11T04:34:51.968Z,1012.38
2016-12-11T04:36:00.989Z,1012.46
2016-12-11T04:37:10.008Z,1012.61
2016-12-11T04:38:19.104Z,1012.59
2016-12-11T04:39:28.712Z,1012.66
2016-12-11T04:40:38.328Z,1012.67
2016-12-11T04:41:47.941Z,1012.73
2016-12-11T04:42:56.646Z,1012.74
2016-12-11T04:44:05.956Z,1012.82
2016-12-11T04:45:15.302Z,1012.92
2016-12-11T04:46:24.308Z,1012.86
2016-12-11T04:47:33.042Z,1013.01
2016-12-11T04:48:42.357Z,1013.03
2016-12-11T04:49:51.068Z,1013.05
2016-12-11T04:51:00.374Z,1013.02
2016-12-11T04:52:09.095Z,1013.15
2016-12-11T04:53:18.103Z,1013.23
2016-12-11T04:54:27.106Z,1013.18
2016-12-11T04:55:36.403Z,1013.13
2016-12-11T04:56:45.092Z,1013.27
2016-12-11T04:57:53.789Z,1013.23
2016-12-11T04:59:02.497Z,1013.31
2016-12-11T05:00:11.823Z,1013.32
2016-12-11T05:01:20.529Z,1013.33
2016-12-11T05:02:29.243Z,1013.39
2016-12-11T05:03:38.093Z,1013.45
2016-12-11T05:04:47.137Z,1013.57
2016-12-11T05:05:56.459Z,1013.55
2016-12-11T05:07:05.487Z,1013.58
2016-12-11T05:08:14.839Z,1013.57
2016-12-11T05:09:23.858Z,1013.53
2016-12-11T05:10:33.164Z,1013.59
2016-12-11T05:11:42.283Z,1013.63
2016-12-11T05:12:50.988Z,1013.72
2016-12-11T05:13:59.993Z,1013.8
2016-12-11T05:15:08.684Z,1013.79
2016-12-11T05:16:17.999Z,1013.79
2016-12-11T05:17:27.327Z,1013.8
2016-12-11T05:18:36.370Z,1013.77
2016-12-11T05:19:45.707Z,1013.83
2016-12-11T05:20:54.620Z,1013.84
2016-12-11T05:22:03.639Z,1013.85
2016-12-11T05:23:12.359Z,1013.85
2016-12-11T05:24:21.435Z,1013.85
2016-12-11T05:25:30.145Z,1013.85
2016-12-11T05:26:39.266Z,1013.88
2016-12-11T05:27:48.265Z,1013.87
2016-12-11T05:28:56.948Z,1013.83
2016-12-11T05:30:05.984Z,1013.89
2016-12-11T05:31:15.643Z,1013.9
2016-12-11T05:32:24.954Z,1014
2016-12-11T05:33:33.963Z,1014
2016-12-11T05:34:43.285Z,1014.03
2016-12-11T05:35:52.638Z,1014.04
2016-12-11T05:37:01.326Z,1014.04
2016-12-11T05:38:10.497Z,1014.08
2016-12-11T05:39:19.557Z,1014.01
2016-12-11T05:40:28.588Z,1014.04
2016-12-11T05:41:37.603Z,1014.04
2016-12-11T05:42:46.597Z,1014.08
2016-12-11T05:43:56.297Z,1014.06
2016-12-11T05:45:05.021Z,1014.08
2016-12-11T05:46:14.366Z,1014.1
2016-12-11T05:47:23.358Z,1014.09
2016-12-11T05:48:32.049Z,1014.1
2016-12-11T05:49:41.384Z,1014.06
2016-12-11T05:50:50.996Z,1014.12
2016-12-11T05:51:59.693Z,1014.17
2016-12-11T05:53:09.335Z,1014.25
2016-12-11T05:54:18.371Z,1014.24
2016-12-11T05:55:27.702Z,1014.28
2016-12-11T05:56:36.749Z,1014.25
2016-12-11T05:57:46.114Z,1014.31
2016-12-11T05:58:54.808Z,1014.35
2016-12-11T06:00:04.174Z,1014.39
2016-12-11T06:01:14.127Z,1014.44
2016-12-11T06:02:24.036Z,1014.37
2016-12-11T06:03:33.691Z,1014.46
2016-12-11T06:04:42.416Z,1014.44
2016-12-11T06:05:51.440Z,1014.49
2016-12-11T06:07:00.554Z,1014.47
2016-12-11T06:08:10.007Z,1014.48
2016-12-11T06:09:19.352Z,1014.48
2016-12-11T06:10:28.048Z,1014.61
2016-12-11T06:11:37.063Z,1014.55
2016-12-11T06:12:46.118Z,1014.6
2016-12-11T06:13:55.181Z,1014.66
2016-12-11T06:15:04.388Z,1014.66
2016-12-11T06:16:13.121Z,1014.64
2016-12-11T06:17:21.874Z,1014.69
2016-12-11T06:18:30.735Z,1014.72
2016-12-11T06:19:39.724Z,1014.74
2016-12-11T06:20:48.746Z,1014.78
2016-12-11T06:21:57.825Z,1014.79
2016-12-11T06:23:06.825Z,1014.76
2016-12-11T06:24:16.189Z,1014.78
2016-12-11T06:25:25.187Z,1014.79
2016-12-11T06:26:34.225Z,1014.84
2016-12-11T06:27:43.563Z,1014.86
2016-12-11T06:28:52.879Z,1014.94
2016-12-11T06:30:01.587Z,1014.99
2016-12-11T06:31:10.606Z,1014.95
2016-12-11T06:32:19.934Z,1015.01
2016-12-11T06:33:28.926Z,1014.93
2016-12-11T06:34:38.245Z,1014.99
2016-12-11T06:35:48.027Z,1015
2016-12-11T06:36:57.376Z,1014.97
2016-12-11T06:38:06.372Z,1015.02
2016-12-11T06:39:15.120Z,1015.05
2016-12-11T06:40:23.836Z,1015.11
2016-12-11T06:41:32.999Z,1015.1
2016-12-11T06:42:41.687Z,1015.19
2016-12-11T06:43:50.752Z,1015.16
2016-12-11T06:44:59.550Z,1015.19
2016-12-11T06:46:08.591Z,1015.19
2016-12-11T06:47:17.951Z,1015.2
2016-12-11T06:48:26.679Z,1015.2
2016-12-11T06:49:35.424Z,1015.26
2016-12-11T06:50:44.225Z,1015.27
2016-12-11T06:51:52.991Z,1015.29
2016-12-11T06:53:02.683Z,1015.28
2016-12-11T06:54:11.733Z,1015.34
2016-12-11T06:55:20.761Z,1015.37
2016-12-11T06:56:29.887Z,1015.36
2016-12-11T06:57:38.890Z,1015.35
2016-12-11T06:58:48.462Z,1015.33
2016-12-11T06:59:57.219Z,1015.28
2016-12-11T07:01:06.272Z,1015.27
2016-12-11T07:02:15.416Z,1015.26
2016-12-11T07:03:24.140Z,1015.29
2016-12-11T07:04:33.544Z,1015.25
2016-12-11T07:05:42.300Z,1015.28
2016-12-11T07:06:51.325Z,1015.32
2016-12-11T07:08:00.333Z,1015.36
2016-12-11T07:09:09.036Z,1015.34
2016-12-11T07:10:17.767Z,1015.3
2016-12-11T07:11:26.476Z,1015.4
2016-12-11T07:12:35.214Z,1015.42
2016-12-11T07:13:43.921Z,1015.46
2016-12-11T07:14:52.919Z,1015.5
2016-12-11T07:16:02.231Z,1015.47
2016-12-11T07:17:11.224Z,1015.49
2016-12-11T07:18:20.611Z,1015.53
2016-12-11T07:19:29.921Z,1015.53
2016-12-11T07:20:38.972Z,1015.58
2016-12-11T07:21:47.973Z,1015.58
2016-12-11T07:22:56.990Z,1015.59
2016-12-11T07:24:06.015Z,1015.57
2016-12-11T07:25:15.040Z,1015.57
2016-12-11T07:26:24.339Z,1015.6
2016-12-11T07:27:33.520Z,1015.63
2016-12-11T07:31:16.127Z,1015.66
2016-12-11T07:32:26.343Z,1015.64
2016-12-11T07:33:35.989Z,1015.68
2016-12-11T07:34:45.002Z,1015.72
2016-12-11T07:35:53.738Z,1015.68
2016-12-11T07:37:03.060Z,1015.71
2016-12-11T07:38:12.382Z,1015.75
2016-12-11T07:39:21.715Z,1015.74
2016-12-11T07:40:31.017Z,1015.73
2016-12-11T07:41:40.023Z,1015.7
2016-12-11T07:42:48.750Z,1015.77
2016-12-11T07:43:57.462Z,1015.78
2016-12-11T07:45:06.544Z,1015.78
2016-12-11T07:46:15.577Z,1015.77
2016-12-11T07:47:25.178Z,1015.72
2016-12-11T07:48:34.209Z,1015.73
2016-12-11T07:49:43.406Z,1015.76
2016-12-11T07:50:52.100Z,1015.76
2016-12-11T07:52:01.482Z,1015.77
2016-12-11T07:53:10.171Z,1015.76
2016-12-11T07:54:18.859Z,1015.76
2016-12-11T07:55:28.183Z,1015.79
2016-12-11T07:56:36.878Z,1015.83
2016-12-11T07:57:45.580Z,1015.84
2016-12-11T07:58:55.511Z,1015.87
2016-12-11T08:00:04.822Z,1015.82
2016-12-11T08:01:13.862Z,1015.85
2016-12-11T08:02:23.168Z,1015.81
2016-12-11T08:03:31.871Z,1015.81
2016-12-11T08:04:40.880Z,1015.83
2016-12-11T08:05:50.211Z,1015.88
2016-12-11T08:06:59.563Z,1015.86
2016-12-11T08:08:08.874Z,1015.82
2016-12-11T08:09:18.255Z,1015.78
2016-12-11T08:10:27.248Z,1015.83
2016-12-11T08:11:36.288Z,1015.8
2016-12-11T08:12:45.296Z,1015.83
2016-12-11T08:13:54.608Z,1015.93
2016-12-11T08:15:03.628Z,1015.94
2016-12-11T08:16:12.651Z,1015.96
2016-12-11T08:17:21.664Z,1016.01
2016-12-11T08:18:31.153Z,1016.05
2016-12-11T08:19:39.908Z,1016.06
2016-12-11T08:20:48.621Z,1016.05
2016-12-11T08:21:57.944Z,1016.04
2016-12-11T08:23:06.688Z,1016.05
2016-12-11T08:24:15.757Z,1016.08
2016-12-11T08:25:24.761Z,1016.05
2016-12-11T08:26:33.532Z,1016.09
2016-12-11T08:27:42.604Z,1016.07
2016-12-11T08:28:51.906Z,1016.09
2016-12-11T08:30:02.299Z,1016.17
2016-12-11T08:31:11.366Z,1016.14
2016-12-11T08:32:20.390Z,1016.13
2016-12-11T08:33:29.716Z,1016.15
2016-12-11T08:34:38.716Z,1016.14
2016-12-11T08:35:48.356Z,1016.15
2016-12-11T08:36:57.389Z,1016.1
2016-12-11T08:38:07.027Z,1016.12
2016-12-11T08:39:15.698Z,1016.12
2016-12-11T08:40:25.001Z,1016.14
2016-12-11T08:41:34.309Z,1016.19
2016-12-11T08:42:43.302Z,1016.17
2016-12-11T08:43:52.314Z,1016.24
2016-12-11T08:45:01.915Z,1016.3
2016-12-11T08:46:11.220Z,1016.26
2016-12-11T08:47:20.833Z,1016.37
2016-12-11T08:48:29.830Z,1016.31
2016-12-11T08:49:38.833Z,1016.32
2016-12-11T08:50:47.528Z,1016.31
2016-12-11T08:51:56.545Z,1016.33
2016-12-11T08:53:06.364Z,1016.35
2016-12-11T08:54:15.979Z,1016.36
2016-12-11T08:55:24.983Z,1016.41
2016-12-11T08:56:34.731Z,1016.45
2016-12-11T08:57:44.047Z,1016.41
2016-12-11T08:58:53.259Z,1016.46
2016-12-11T09:00:01.950Z,1016.49
2016-12-11T09:01:10.705Z,1016.5
2016-12-11T09:02:19.391Z,1016.55
2016-12-11T09:03:28.424Z,1016.56
2016-12-11T09:04:37.833Z,1016.54
2016-12-11T09:05:46.559Z,1016.6
2016-12-11T09:06:55.859Z,1016.63
2016-12-11T09:08:04.985Z,1016.59
2016-12-11T09:09:13.768Z,1016.64
2016-12-11T09:10:22.790Z,1016.64
2016-12-11T09:11:31.557Z,1016.65
2016-12-11T09:12:41.265Z,1016.62
2016-12-11T09:13:50.518Z,1016.61
2016-12-11T09:14:59.195Z,1016.64
2016-12-11T09:16:08.491Z,1016.73
2016-12-11T09:17:17.933Z,1016.7
2016-12-11T09:18:27.257Z,1016.63
2016-12-11T09:19:35.947Z,1016.71
2016-12-11T09:20:45.477Z,1016.73
2016-12-11T09:21:54.511Z,1016.79
2016-12-11T09:23:03.255Z,1016.78
2016-12-11T09:24:12.444Z,1016.79
2016-12-11T09:25:21.523Z,1016.8
2016-12-11T09:26:31.183Z,1016.82
2016-12-11T09:27:40.192Z,1016.88
2016-12-11T09:28:49.199Z,1016.95
2016-12-11T09:29:57.881Z,1016.89
2016-12-11T09:31:07.484Z,1016.97
2016-12-11T09:32:16.492Z,1016.96
2016-12-11T09:33:25.796Z,1016.94
2016-12-11T09:34:34.503Z,1017.01
2016-12-11T09:35:43.831Z,1016.99
2016-12-11T09:36:52.524Z,1016.94
2016-12-11T09:38:01.553Z,1017.09
2016-12-11T09:39:11.207Z,1017.04
2016-12-11T09:40:20.510Z,1017.15
2016-12-11T09:41:29.516Z,1017.12
2016-12-11T09:42:39.151Z,1017.1
2016-12-11T09:43:48.149Z,1017.13
2016-12-11T09:44:56.843Z,1017.04
2016-12-11T09:46:05.549Z,1017.05
2016-12-11T09:47:14.239Z,1017.09
2016-12-11T09:48:22.931Z,1017.05
2016-12-11T09:49:31.938Z,1017.11
2016-12-11T09:50:41.551Z,1017.09
2016-12-11T09:51:50.237Z,1017.08
2016-12-11T09:53:00.193Z,1017.17
2016-12-11T09:54:08.876Z,1017.16
2016-12-11T09:55:17.890Z,1017.1
2016-12-11T09:56:26.902Z,1017.09
2016-12-11T09:57:36.278Z,1017.14
2016-12-11T09:58:45.297Z,1017.1
2016-12-11T09:59:54.298Z,1017.13
2016-12-11T10:01:03.008Z,1017.13
2016-12-11T10:02:12.320Z,1017.08
2016-12-11T10:03:21.037Z,1017.04
2016-12-11T10:04:30.098Z,1017.08
2016-12-11T10:05:39.446Z,1017.09
2016-12-11T10:06:48.154Z,1017.09
2016-12-11T10:07:57.195Z,1017.11
2016-12-11T10:09:05.963Z,1017.12
2016-12-11T10:10:14.976Z,1017.1
2016-12-11T10:11:24.300Z,1017.13
2016-12-11T10:12:33.614Z,1017.15
2016-12-11T10:13:43.100Z,1017.1
2016-12-11T10:14:52.129Z,1017.07
2016-12-11T10:16:00.826Z,1017.14
2016-12-11T10:17:09.840Z,1017.06
2016-12-11T10:18:18.839Z,1017.09
2016-12-11T10:19:27.842Z,1017.05
2016-12-11T10:20:36.562Z,1017.04
2016-12-11T10:21:45.876Z,1017.01
2016-12-11T10:22:54.595Z,1017.01
2016-12-11T10:24:03.903Z,1016.99
2016-12-11T10:25:12.933Z,1016.93
2016-12-11T10:26:22.247Z,1017.02
2016-12-11T10:27:31.554Z,1016.93
2016-12-11T10:28:40.565Z,1016.91
2016-12-11T10:29:49.274Z,1016.92
2016-12-11T10:30:58.738Z,1016.93
2016-12-11T10:32:07.756Z,1016.85
2016-12-11T10:33:16.761Z,1016.97
2016-12-11T10:34:26.687Z,1016.92
2016-12-11T10:35:35.995Z,1016.94
2016-12-11T10:36:45.355Z,1017.01
2016-12-11T10:37:54.698Z,1016.93
2016-12-11T10:39:04.022Z,1016.97
2016-12-11T10:40:12.724Z,1016.97
2016-12-11T10:41:22.664Z,1016.94
2016-12-11T10:42:31.999Z,1016.97
2016-12-11T10:43:40.986Z,1016.93
2016-12-11T10:44:49.976Z,1017
2016-12-11T10:45:59.000Z,1017.03
2016-12-11T10:47:08.009Z,1017.01
2016-12-11T10:48:17.200Z,1017.02
2016-12-11T10:49:25.894Z,1017.03
2016-12-11T10:50:34.908Z,1017.06
2016-12-11T10:51:43.922Z,1017.1
2016-12-11T10:52:52.970Z,1017.08
2016-12-11T10:54:02.153Z,1017.09
2016-12-11T10:55:11.162Z,1017.15
2016-12-11T10:56:19.874Z,1017.18
2016-12-11T10:57:28.875Z,1017.15
2016-12-11T10:58:37.891Z,1017.11
2016-12-11T10:59:47.061Z,1017.19
2016-12-11T11:00:56.377Z,1017.15
2016-12-11T11:02:05.074Z,1017.17
2016-12-11T11:03:14.092Z,1017.17
2016-12-11T11:04:23.401Z,1017.16
2016-12-11T11:05:32.252Z,1017.2
2016-12-11T11:06:40.944Z,1017.21
2016-12-11T11:07:49.630Z,1017.22
2016-12-11T11:08:58.316Z,1017.24
2016-12-11T11:10:07.367Z,1017.27
2016-12-11T11:11:16.826Z,1017.2
2016-12-11T11:12:26.150Z,1017.19
2016-12-11T11:13:35.992Z,1017.21
2016-12-11T11:14:45.212Z,1017.25
2016-12-11T11:15:53.966Z,1017.27
2016-12-11T11:17:03.004Z,1017.31
2016-12-11T11:18:11.710Z,1017.32
2016-12-11T11:19:21.322Z,1017.33
2016-12-11T11:20:30.012Z,1017.33
2016-12-11T11:21:39.019Z,1017.33
2016-12-11T11:22:48.071Z,1017.29
2016-12-11T11:23:57.688Z,1017.35
2016-12-11T11:25:06.990Z,1017.33
2016-12-11T11:26:15.744Z,1017.27
2016-12-11T11:27:24.417Z,1017.29
2016-12-11T11:28:33.455Z,1017.27
2016-12-11T11:29:42.450Z,1017.23
2016-12-11T11:30:51.146Z,1017.23
2016-12-11T11:32:00.460Z,1017.31
2016-12-11T11:33:09.149Z,1017.33
2016-12-11T11:34:18.388Z,1017.32
2016-12-11T11:35:27.421Z,1017.31
2016-12-11T11:36:36.425Z,1017.35
2016-12-11T11:37:46.039Z,1017.39
2016-12-11T11:38:55.060Z,1017.39
2016-12-11T11:40:04.059Z,1017.3
2016-12-11T11:41:13.383Z,1017.31
2016-12-11T11:42:22.688Z,1017.3
2016-12-11T11:43:31.368Z,1017.31
2016-12-11T11:44:40.664Z,1017.29
2016-12-11T11:45:50.023Z,1017.3
2016-12-11T11:46:59.013Z,1017.32
2016-12-11T11:48:07.999Z,1017.3
2016-12-11T11:49:17.288Z,1017.33
2016-12-11T11:50:25.975Z,1017.37
2016-12-11T11:51:35.281Z,1017.28
2016-12-11T11:52:44.317Z,1017.29
2016-12-11T11:53:54.241Z,1017.22
2016-12-11T11:55:03.245Z,1017.2
2016-12-11T11:56:12.561Z,1017.25
2016-12-11T11:57:21.704Z,1017.31
2016-12-11T11:58:30.701Z,1017.3
2016-12-11T11:59:39.698Z,1017.31
2016-12-11T12:00:48.389Z,1017.24
2016-12-11T12:01:57.377Z,1017.26
2016-12-11T12:03:06.735Z,1017.17
2016-12-11T12:04:15.426Z,1017.17
2016-12-11T12:05:24.449Z,1017.21
2016-12-11T12:06:33.457Z,1017.21
2016-12-11T12:07:42.783Z,1017.15
2016-12-11T12:08:52.752Z,1017.17
2016-12-11T12:10:01.748Z,1017.17
2016-12-11T12:11:10.592Z,1017.14
2016-12-11T12:12:20.274Z,1017.15
2016-12-11T12:13:28.967Z,1017.17
2016-12-11T12:14:37.802Z,1017.15
2016-12-11T12:15:47.981Z,1017.1
2016-12-11T12:16:56.973Z,1017.15
2016-12-11T12:18:05.678Z,1017.16
2016-12-11T12:19:14.600Z,1017.16
2016-12-11T12:20:24.050Z,1017.07
2016-12-11T12:21:32.742Z,1017.08
2016-12-11T12:22:41.491Z,1017.13
2016-12-11T12:23:51.176Z,1017.14
2016-12-11T12:25:00.338Z,1017.16
2016-12-11T12:26:10.045Z,1017.19
2016-12-11T12:27:19.367Z,1017.14
2016-12-11T12:28:28.059Z,1017.18
2016-12-11T12:29:37.372Z,1017.17
2016-12-11T12:30:46.070Z,1017.2
2016-12-11T12:31:54.938Z,1017.19
2016-12-11T12:33:03.631Z,1017.14
2016-12-11T12:34:12.374Z,1017.18
2016-12-11T12:35:21.713Z,1017.21
2016-12-11T12:36:31.019Z,1017.25
2016-12-11T12:37:40.173Z,1017.24
2016-12-11T12:38:49.478Z,1017.22
2016-12-11T12:39:58.473Z,1017.17
2016-12-11T12:41:07.154Z,1017.24
2016-12-11T12:42:16.758Z,1017.23
2016-12-11T12:43:26.080Z,1017.25
2016-12-11T12:44:34.760Z,1017.26
2016-12-11T12:45:43.749Z,1017.28
2016-12-11T12:46:52.449Z,1017.24
2016-12-11T12:48:01.448Z,1017.19
2016-12-11T12:49:10.511Z,1017.22
2016-12-11T12:50:20.118Z,1017.2
2016-12-11T12:51:29.109Z,1017.16
2016-12-11T12:52:38.427Z,1017.23
2016-12-11T12:53:47.113Z,1017.23
2016-12-11T12:54:56.437Z,1017.21
2016-12-11T12:56:05.142Z,1017.15
2016-12-11T12:57:14.139Z,1017.18
2016-12-11T12:58:22.839Z,1017.19
2016-12-11T12:59:31.539Z,1017.14
2016-12-11T13:00:40.891Z,1017.18
2016-12-11T13:01:49.930Z,1017.19
2016-12-11T13:02:58.940Z,1017.23
2016-12-11T13:04:07.936Z,1017.23
2016-12-11T13:05:16.637Z,1017.2
2016-12-11T13:06:25.812Z,1017.18
2016-12-11T13:07:34.837Z,1017.17
2016-12-11T13:08:43.840Z,1017.2
2016-12-11T13:09:53.143Z,1017.16
2016-12-11T13:11:02.461Z,1017.18
2016-12-11T13:12:11.468Z,1017.12
2016-12-11T13:13:20.462Z,1017.15
2016-12-11T13:14:29.490Z,1017.11
2016-12-11T13:15:38.482Z,1017.13
2016-12-11T13:16:47.478Z,1017.07
2016-12-11T13:17:56.795Z,1017.08
2016-12-11T13:19:05.480Z,1017.13
2016-12-11T13:20:14.170Z,1017.16
2016-12-11T13:21:22.843Z,1017.05
2016-12-11T13:22:32.141Z,1017.1
2016-12-11T13:23:40.997Z,1017.07
2016-12-11T13:24:49.689Z,1017.12
2016-12-11T13:25:58.683Z,1017.14
2016-12-11T13:27:07.421Z,1017.09
2016-12-11T13:28:16.107Z,1017.12
2016-12-11T13:29:25.106Z,1017.12
2016-12-11T13:30:33.796Z,1017.03
2016-12-11T13:31:43.097Z,1017.01
2016-12-11T13:32:52.097Z,1017.03
2016-12-11T13:34:01.113Z,1017.03
2016-12-11T13:35:10.142Z,1017.03
2016-12-11T13:36:19.432Z,1017.03
2016-12-11T13:37:28.126Z,1017.06
2016-12-11T13:38:37.148Z,1017.05
2016-12-11T13:39:45.842Z,1016.96
2016-12-11T13:40:55.289Z,1016.93
2016-12-11T13:42:03.980Z,1016.89
2016-12-11T13:43:13.282Z,1016.92
2016-12-11T13:44:21.990Z,1016.91
2016-12-11T13:45:30.982Z,1016.9
2016-12-11T13:46:40.287Z,1016.92
2016-12-11T13:47:49.292Z,1016.93
2016-12-11T13:48:58.583Z,1016.92
2016-12-11T13:50:07.905Z,1016.91
2016-12-11T13:51:16.895Z,1016.9
2016-12-11T13:52:25.612Z,1016.88
2016-12-11T13:53:34.333Z,1016.85
2016-12-11T13:54:43.342Z,1016.83
2016-12-11T13:55:52.360Z,1016.87
2016-12-11T13:57:01.454Z,1016.84
2016-12-11T13:58:11.108Z,1016.92
2016-12-11T13:59:20.436Z,1016.92
2016-12-11T14:00:29.749Z,1016.89
2016-12-11T14:01:38.764Z,1016.96